^^
Saratoga-Weather Station Historical Data
Daily Summary for June 13, 2020 Units:  English    Metric   Both
Daily Weekly Monthly Yearly Custom
  High: Low: Average:
Temperature: 91 °F 66.9 °F 76.5 °F
Dew Point: 69.1 °F 57.7 °F 64.4 °F
Humidity: 94% 34% 71%
Wind Speed: 8.9mph 0mph 1.3mph
Wind Gust: 11mph - -
Wind- - SW
Pressure: 29.9 in 29.8 in -
Precipitation: 0 in    
Historical Graphs
 
 
Tabular Data for June 13, 2020
Time Temperature Dew Point Pressure Wind Wind Speed Wind Gust Humidity Rainfall Rate (Hourly) solar
00:03 70.3 °F 67.6 °F 29.9 in Calm     91% 0 in 0 W/m2
00:08 70.2 °F 67.5 °F 29.9 in SSW 0.9 mph 2 mph 91% 0 in 0 W/m2
00:13 70 °F 67.3 °F 29.9 in SSW 0.9 mph 2 mph 91% 0 in 0 W/m2
00:18 70 °F 67.3 °F 29.9 in SSW 0.9 mph 2 mph 91% 0 in 0 W/m2
00:23 69.8 °F 67.1 °F 29.9 in SSW 0.9 mph 2 mph 91% 0 in 0 W/m2
00:28 69.6 °F 66.9 °F 29.9 in SSW 2 mph 2 mph 91% 0 in 0 W/m2
00:33 69.4 °F 66.7 °F 29.9 in SW 0.9 mph 2 mph 91% 0 in 0 W/m2
00:38 69.4 °F 66.7 °F 29.9 in Calm   1 mph 91% 0 in 0 W/m2
00:43 69.4 °F 66.7 °F 29.9 in Calm   1 mph 91% 0 in 0 W/m2
00:48 69.3 °F 66.6 °F 29.9 in Calm   1 mph 91% 0 in 0 W/m2
00:53 69.1 °F 66.4 °F 29.9 in SW 0.9 mph 2 mph 91% 0 in 0 W/m2
00:59 69.1 °F 66.4 °F 29.9 in Calm   1 mph 91% 0 in 0 W/m2
01:04 69.1 °F 66.4 °F 29.9 in Calm   1 mph 91% 0 in 0 W/m2
01:09 68.9 °F 66.2 °F 29.9 in Calm   1 mph 91% 0 in 0 W/m2
01:14 68.7 °F 66 °F 29.9 in SSE 2 mph 2 mph 91% 0 in 0 W/m2
01:19 68.7 °F 66 °F 29.9 in Calm   2 mph 91% 0 in 0 W/m2
01:24 68.7 °F 66 °F 29.8 in South 2 mph 2 mph 91% 0 in 0 W/m2
01:29 68.7 °F 66 °F 29.8 in South 2 mph 2 mph 91% 0 in 0 W/m2
01:34 68.5 °F 65.8 °F 29.8 in Calm   1 mph 91% 0 in 0 W/m2
01:39 68.5 °F 65.8 °F 29.8 in Calm   1 mph 91% 0 in 0 W/m2
01:44 68.4 °F 65.7 °F 29.8 in Calm   1 mph 91% 0 in 0 W/m2
01:49 68.2 °F 65.5 °F 29.8 in Calm     91% 0 in 0 W/m2
01:54 68 °F 65.3 °F 29.8 in Calm     91% 0 in 0 W/m2
01:59 67.8 °F 65.5 °F 29.8 in Calm     92% 0 in 0 W/m2
02:04 67.8 °F 65.5 °F 29.8 in Calm     92% 0 in 0 W/m2
02:09 67.6 °F 65.3 °F 29.8 in Calm     92% 0 in 0 W/m2
02:14 67.6 °F 65.3 °F 29.8 in Calm     92% 0 in 0 W/m2
02:19 67.5 °F 65.1 °F 29.8 in Calm     92% 0 in 0 W/m2
02:24 67.5 °F 65.1 °F 29.8 in Calm     92% 0 in 0 W/m2
02:29 67.5 °F 65.3 °F 29.8 in Calm     93% 0 in 0 W/m2
02:34 67.3 °F 65.1 °F 29.8 in Calm     93% 0 in 0 W/m2
02:39 67.3 °F 65.1 °F 29.8 in Calm     93% 0 in 0 W/m2
02:44 67.1 °F 64.9 °F 29.8 in Calm     93% 0 in 0 W/m2
02:49 67.1 °F 64.9 °F 29.8 in Calm     93% 0 in 0 W/m2
02:54 67.1 °F 64.9 °F 29.8 in Calm     93% 0 in 0 W/m2
02:59 66.9 °F 64.8 °F 29.8 in Calm     93% 0 in 0 W/m2
03:04 66.9 °F 64.8 °F 29.8 in Calm     93% 0 in 0 W/m2
03:10 66.9 °F 64.8 °F 29.8 in South 0.9 mph 1 mph 93% 0 in 0 W/m2
03:15 67.1 °F 65.3 °F 29.8 in Calm     94% 0 in 0 W/m2
03:20 67.1 °F 64.9 °F 29.8 in Calm     93% 0 in 0 W/m2
03:25 67.1 °F 64.9 °F 29.8 in Calm     93% 0 in 0 W/m2
03:30 67.1 °F 64.9 °F 29.8 in Calm     93% 0 in 0 W/m2
03:35 67.3 °F 65.1 °F 29.8 in Calm     93% 0 in 0 W/m2
03:40 67.3 °F 65.1 °F 29.8 in Calm     93% 0 in 0 W/m2
03:45 67.3 °F 65.1 °F 29.8 in Calm     93% 0 in 0 W/m2
03:50 67.3 °F 65.1 °F 29.8 in Calm     93% 0 in 0 W/m2
03:55 67.3 °F 65.1 °F 29.8 in Calm     93% 0 in 0 W/m2
04:00 67.3 °F 65.1 °F 29.8 in Calm     93% 0 in 0 W/m2
04:05 67.3 °F 65.1 °F 29.8 in Calm     93% 0 in 0 W/m2
04:10 67.3 °F 64.9 °F 29.8 in Calm     92% 0 in 0 W/m2
04:15 67.1 °F 64.8 °F 29.8 in Calm     92% 0 in 0 W/m2
04:20 67.1 °F 64.8 °F 29.8 in Calm     92% 0 in 0 W/m2
04:25 67.3 °F 64.9 °F 29.8 in Calm     92% 0 in 0 W/m2
04:30 67.3 °F 64.9 °F 29.8 in Calm     92% 0 in 0 W/m2
04:35 67.3 °F 64.9 °F 29.8 in Calm     92% 0 in 0 W/m2
04:40 67.3 °F 65.1 °F 29.8 in Calm     93% 0 in 0 W/m2
04:45 67.3 °F 65.1 °F 29.8 in Calm     93% 0 in 0 W/m2
04:50 67.3 °F 65.1 °F 29.8 in Calm     93% 0 in 0 W/m2
04:55 67.3 °F 65.1 °F 29.8 in Calm     93% 0 in 0 W/m2
05:00 67.3 °F 65.1 °F 29.8 in Calm     93% 0 in 0 W/m2
05:05 67.3 °F 65.1 °F 29.8 in Calm     93% 0 in 0 W/m2
05:10 67.3 °F 64.9 °F 29.8 in Calm     92% 0 in 0 W/m2
05:15 67.3 °F 64.9 °F 29.8 in Calm     92% 0 in 0 W/m2
05:20 67.3 °F 64.9 °F 29.8 in Calm     92% 0 in 0 W/m2
05:25 67.3 °F 64.9 °F 29.8 in Calm     92% 0 in 0 W/m2
05:30 67.3 °F 64.9 °F 29.8 in Calm     92% 0 in 0 W/m2
05:35 67.3 °F 64.9 °F 29.8 in Calm     92% 0 in 0 W/m2
05:40 67.3 °F 64.9 °F 29.8 in Calm     92% 0 in 0 W/m2
05:45 67.3 °F 64.9 °F 29.8 in Calm     92% 0 in 0 W/m2
05:50 67.3 °F 64.9 °F 29.8 in Calm     92% 0 in 0 W/m2
05:55 67.5 °F 65.1 °F 29.8 in Calm     92% 0 in 0 W/m2
06:05 67.5 °F 64.8 °F 29.8 in Calm     91% 0 in 0 W/m2
06:10 67.5 °F 64.8 °F 29.8 in Calm     91% 0 in 0 W/m2
06:15 67.3 °F 64.6 °F 29.8 in Calm     91% 0 in 0 W/m2
06:20 67.3 °F 64.6 °F 29.8 in Calm     91% 0 in 0 W/m2
06:25 67.3 °F 64.6 °F 29.8 in Calm     91% 0 in 0 W/m2
06:30 67.3 °F 64.6 °F 29.8 in Calm     91% 0 in 0 W/m2
06:36 67.1 °F 64.4 °F 29.8 in Calm     91% 0 in 0 W/m2
06:41 66.9 °F 64.2 °F 29.8 in Calm     91% 0 in 5 W/m2
06:46 66.9 °F 64.2 °F 29.8 in Calm     91% 0 in 9 W/m2
06:51 66.9 °F 64.2 °F 29.8 in Calm     91% 0 in 14 W/m2
06:56 66.9 °F 64.2 °F 29.8 in Calm     91% 0 in 18 W/m2
07:01 67.1 °F 64.4 °F 29.8 in Calm     91% 0 in 19 W/m2
07:06 67.3 °F 64.6 °F 29.8 in Calm     91% 0 in 23 W/m2
07:11 67.3 °F 64.6 °F 29.8 in Calm     91% 0 in 25 W/m2
07:16 67.5 °F 64.8 °F 29.8 in Calm     91% 0 in 32 W/m2
07:21 67.5 °F 64.8 °F 29.9 in Calm     91% 0 in 35 W/m2
07:26 67.6 °F 64.9 °F 29.9 in Calm     91% 0 in 46 W/m2
07:31 67.8 °F 65.5 °F 29.9 in South 0.9 mph 1 mph 92% 0 in 53 W/m2
07:36 68.2 °F 65.5 °F 29.9 in Calm     91% 0 in 40 W/m2
07:41 68.4 °F 65.7 °F 29.9 in Calm   1 mph 91% 0 in 33 W/m2
07:46 68.5 °F 65.8 °F 29.9 in Calm     91% 0 in 33 W/m2
07:51 68.7 °F 65.7 °F 29.9 in Calm     90% 0 in 42 W/m2
07:56 68.9 °F 65.8 °F 29.9 in Calm     90% 0 in 35 W/m2
08:01 69.1 °F 66 °F 29.9 in Calm     90% 0 in 28 W/m2
08:06 69.1 °F 66 °F 29.9 in Calm     90% 0 in 28 W/m2
08:11 69.1 °F 66 °F 29.9 in Calm     90% 0 in 30 W/m2
08:16 69.3 °F 66.2 °F 29.9 in Calm     90% 0 in 33 W/m2
08:21 69.3 °F 66.2 °F 29.9 in Calm     90% 0 in 30 W/m2
08:26 69.3 °F 65.8 °F 29.9 in Calm     89% 0 in 33 W/m2
08:31 69.4 °F 66 °F 29.9 in Calm     89% 0 in 39 W/m2
08:36 69.4 °F 66.4 °F 29.9 in Calm   1 mph 90% 0 in 39 W/m2
08:41 69.4 °F 66.4 °F 29.9 in Calm   1 mph 90% 0 in 40 W/m2
08:46 69.4 °F 66.4 °F 29.9 in Calm     90% 0 in 44 W/m2
08:51 69.4 °F 66.7 °F 29.9 in Calm     91% 0 in 47 W/m2
08:56 69.4 °F 66.7 °F 29.9 in South 0.9 mph 1 mph 91% 0 in 47 W/m2
09:01 69.4 °F 66.7 °F 29.9 in Calm     91% 0 in 49 W/m2
09:06 69.6 °F 66.9 °F 29.9 in Calm     91% 0 in 60 W/m2
09:11 69.8 °F 67.1 °F 29.9 in Calm   2 mph 91% 0 in 97 W/m2
09:16 70.2 °F 67.5 °F 29.9 in NNE 2 mph 2 mph 91% 0 in 165 W/m2
09:21 70.5 °F 67.1 °F 29.9 in Calm   2 mph 89% 0 in 179 W/m2
09:26 71.2 °F 66.9 °F 29.9 in West 0.9 mph 4 mph 86% 0 in 220 W/m2
09:31 72.3 °F 66.6 °F 29.9 in NNW 2 mph 4 mph 82% 0 in 475 W/m2
09:36 73 °F 66.6 °F 29.9 in NNE 2 mph 2 mph 80% 0 in 255 W/m2
09:41 73.9 °F 67.1 °F 29.9 in WNW 0.9 mph 4 mph 79% 0 in 243 W/m2
09:46 74.5 °F 67.1 °F 29.9 in West 0.9 mph 3 mph 78% 0 in 192 W/m2
09:51 74.8 °F 67.1 °F 29.9 in West 0.9 mph 3 mph 77% 0 in 213 W/m2
09:56 75 °F 67.3 °F 29.9 in NW 0.9 mph 3 mph 77% 0 in 206 W/m2
10:01 75 °F 66.9 °F 29.9 in Calm   2 mph 76% 0 in 197 W/m2
10:06 75.4 °F 67.6 °F 29.9 in Calm   3 mph 77% 0 in 209 W/m2
10:11 75.4 °F 67.6 °F 29.9 in WNW 4 mph 5 mph 77% 0 in 195 W/m2
10:16 75.4 °F 67.6 °F 29.9 in NW 0.9 mph 3 mph 77% 0 in 188 W/m2
10:21 75 °F 66.9 °F 29.9 in West 2 mph 6 mph 76% 0 in 167 W/m2
10:26 74.8 °F 67.1 °F 29.9 in Calm   1 mph 77% 0 in 156 W/m2
10:31 74.8 °F 67.1 °F 29.9 in Calm   2 mph 77% 0 in 139 W/m2
10:36 74.8 °F 67.1 °F 29.9 in ENE 0.9 mph 3 mph 77% 0 in 142 W/m2
10:41 74.8 °F 67.1 °F 29.9 in Calm   2 mph 77% 0 in 169 W/m2
10:46 74.8 °F 67.5 °F 29.9 in East 0.9 mph 1 mph 78% 0 in 211 W/m2
10:51 75 °F 68 °F 29.9 in SW 0.9 mph 1 mph 79% 0 in 257 W/m2
10:56 75.2 °F 67.8 °F 29.9 in West 2.9 mph 3 mph 78% 0 in 325 W/m2
11:01 75.4 °F 68 °F 29.9 in West 0.9 mph 2 mph 78% 0 in 381 W/m2
11:06 75.9 °F 68.5 °F 29.9 in WNW 2.9 mph 4 mph 78% 0 in 613 W/m2
11:11 76.6 °F 68.9 °F 29.9 in North 2 mph 8 mph 77% 0 in 886 W/m2
11:16 77.2 °F 68.7 °F 29.9 in WNW 2 mph 4 mph 75% 0 in 390 W/m2
11:21 77.5 °F 68.5 °F 29.9 in Calm   8 mph 74% 0 in 408 W/m2
11:26 78.1 °F 69.1 °F 29.9 in NW 0.9 mph 4 mph 74% 0 in 387 W/m2
11:31 78.1 °F 68.7 °F 29.9 in Calm   5 mph 73% 0 in 309 W/m2
11:36 78.4 °F 68.7 °F 29.9 in NE 0.9 mph 6 mph 72% 0 in 281 W/m2
11:41 78.4 °F 68.7 °F 29.9 in WNW 0.9 mph 3 mph 72% 0 in 241 W/m2
11:46 78.4 °F 67.8 °F 29.9 in WNW 0.9 mph 3 mph 70% 0 in 257 W/m2
11:51 78.4 °F 67.8 °F 29.9 in West 0.9 mph 3 mph 70% 0 in 262 W/m2
11:56 78.3 °F 67.3 °F 29.9 in ENE 0.9 mph 2 mph 69% 0 in 276 W/m2
12:01 78.3 °F 67.6 °F 29.9 in WNW 2 mph 2 mph 70% 0 in 274 W/m2
12:06 78.4 °F 67.8 °F 29.9 in NW 2.9 mph 3 mph 70% 0 in 308 W/m2
12:11 78.4 °F 67.5 °F 29.9 in West 6 mph 6 mph 69% 0 in 642 W/m2
12:16 78.4 °F 66.9 °F 29.9 in WNW 2 mph 6 mph 68% 0 in 350 W/m2
12:21 78.6 °F 67.1 °F 29.9 in WNW 8.1 mph 8 mph 68% 0 in 647 W/m2
12:26 79 °F 67.5 °F 29.9 in NW 2.9 mph 7 mph 68% 0 in 547 W/m2
12:31 79.5 °F 67.1 °F 29.9 in North 2 mph 2 mph 66% 0 in 401 W/m2
12:36 80.2 °F 67.5 °F 29.9 in WNW 8.1 mph 8 mph 65% 0 in 591 W/m2
12:41 80.4 °F 67.1 °F 29.9 in ENE 4 mph 8 mph 64% 0 in 515 W/m2
12:46 81 °F 66.7 °F 29.9 in East 2.9 mph 3 mph 62% 0 in 640 W/m2
12:51 81.7 °F 66.9 °F 29.9 in NW 2.9 mph 4 mph 61% 0 in 603 W/m2
12:56 81.9 °F 65.1 °F 29.9 in NNW 2.9 mph 4 mph 57% 0 in 668 W/m2
13:01 82 °F 65.8 °F 29.9 in NW 2 mph 4 mph 58% 0 in 487 W/m2
13:06 82.4 °F 65.7 °F 29.9 in SW 4 mph 5 mph 57% 0 in 563 W/m2
13:12 82.6 °F 65.8 °F 29.9 in NNW 0.9 mph 8 mph 57% 0 in 645 W/m2
13:17 82.9 °F 65.1 °F 29.9 in SE 2 mph 2 mph 55% 0 in 670 W/m2
13:22 83.5 °F 66.2 °F 29.9 in WNW 4 mph 4 mph 56% 0 in 548 W/m2
13:27 83.5 °F 65.7 °F 29.9 in Calm   4 mph 55% 0 in 371 W/m2
13:32 83.7 °F 64.8 °F 29.9 in NW 8.9 mph 9 mph 53% 0 in 573 W/m2
13:37 83.5 °F 64.6 °F 29.9 in SSW 2 mph 7 mph 53% 0 in 663 W/m2
13:42 83.7 °F 64.8 °F 29.9 in NW 2 mph 5 mph 53% 0 in 383 W/m2
13:47 84 °F 64.6 °F 29.9 in WNW 0.9 mph 5 mph 52% 0 in 733 W/m2
13:52 84.7 °F 65.1 °F 29.9 in NW 0.9 mph 3 mph 52% 0 in 784 W/m2
13:57 84.9 °F 64.2 °F 29.9 in WNW 2.9 mph 9 mph 50% 0 in 432 W/m2
14:02 84.7 °F 64 °F 29.9 in NE 0.9 mph 3 mph 50% 0 in 339 W/m2
14:07 84.6 °F 63.9 °F 29.9 in WNW 2.9 mph 6 mph 50% 0 in 360 W/m2
14:12 84.4 °F 63.1 °F 29.9 in Calm   4 mph 49% 0 in 338 W/m2
14:17 84.6 °F 63.9 °F 29.9 in NE 2.9 mph 3 mph 50% 0 in 408 W/m2
14:22 84.6 °F 63.9 °F 29.9 in WNW 2 mph 3 mph 50% 0 in 496 W/m2
14:27 84.7 °F 64 °F 29.9 in Calm   4 mph 50% 0 in 483 W/m2
14:32 85.1 °F 63.9 °F 29.9 in West 2.9 mph 3 mph 49% 0 in 454 W/m2
14:37 84.9 °F 63 °F 29.9 in WNW 2.9 mph 6 mph 48% 0 in 461 W/m2
14:42 84.7 °F 63 °F 29.9 in West 2 mph 2 mph 48% 0 in 434 W/m2
14:47 84.7 °F 63 °F 29.9 in West 2 mph 8 mph 48% 0 in 489 W/m2
14:52 84.7 °F 63 °F 29.9 in SW 2 mph 4 mph 48% 0 in 454 W/m2
14:57 84.7 °F 63 °F 29.9 in West 4 mph 8 mph 48% 0 in 404 W/m2
15:02 84.6 °F 62.1 °F 29.9 in NW 2.9 mph 6 mph 47% 0 in 471 W/m2
15:07 84.6 °F 62.8 °F 29.9 in NE 0.9 mph 2 mph 48% 0 in 512 W/m2
15:12 84.7 °F 63 °F 29.9 in West 8.1 mph 8 mph 48% 0 in 555 W/m2
15:17 84.9 °F 62.4 °F 29.9 in NW 4.9 mph 8 mph 47% 0 in 592 W/m2
15:22 85.3 °F 62.8 °F 29.9 in West 2.9 mph 4 mph 47% 0 in 519 W/m2
15:27 85.5 °F 63 °F 29.9 in SSW 0.9 mph 9 mph 47% 0 in 496 W/m2
15:32 85.3 °F 62.8 °F 29.9 in NNE 2.9 mph 4 mph 47% 0 in 596 W/m2
15:37 85.5 °F 63 °F 29.9 in SSE 4 mph 9 mph 47% 0 in 559 W/m2
15:42 85.8 °F 63.3 °F 29.9 in NE 0.9 mph 3 mph 47% 0 in 624 W/m2
15:47 86.2 °F 62.4 °F 29.9 in NNW 0.9 mph 4 mph 45% 0 in 686 W/m2
15:52 86.7 °F 62.2 °F 29.9 in NW 0.9 mph 4 mph 44% 0 in 649 W/m2
15:57 87.1 °F 62.6 °F 29.9 in WSW 4 mph 7 mph 44% 0 in 469 W/m2
16:02 86.7 °F 62.2 °F 29.9 in ENE 2 mph 3 mph 44% 0 in 642 W/m2
16:07 87.3 °F 61.3 °F 29.9 in NNW 4.9 mph 9 mph 42% 0 in 696 W/m2
16:12 87.6 °F 61.7 °F 29.9 in WNW 0.9 mph 11 mph 42% 0 in 613 W/m2
16:17 87.8 °F 61.2 °F 29.9 in WNW 2.9 mph 5 mph 41% 0 in 476 W/m2
16:22 88 °F 61.3 °F 29.9 in NW 2 mph 8 mph 41% 0 in 557 W/m2
16:27 88.2 °F 62.2 °F 29.9 in SSE 2.9 mph 7 mph 42% 0 in 418 W/m2
16:32 88.3 °F 61.7 °F 29.9 in WNW 4 mph 4 mph 41% 0 in 403 W/m2
16:37 87.6 °F 61.7 °F 29.9 in ENE 2.9 mph 7 mph 42% 0 in 443 W/m2
16:42 87.4 °F 61.5 °F 29.9 in SW 4 mph 5 mph 42% 0 in 392 W/m2
16:47 87.1 °F 61.2 °F 29.9 in NNW 2.9 mph 7 mph 42% 0 in 230 W/m2
16:52 86.5 °F 61.3 °F 29.9 in NNW 2 mph 3 mph 43% 0 in 172 W/m2
16:57 86.5 °F 62.1 °F 29.9 in NW 2 mph 2 mph 44% 0 in 598 W/m2
17:02 87.1 °F 61.2 °F 29.9 in ESE 6 mph 6 mph 42% 0 in 438 W/m2
17:07 87.3 °F 61.3 °F 29.9 in West 2 mph 4 mph 42% 0 in 316 W/m2
17:12 87.3 °F 61.3 °F 29.9 in North 0.9 mph 5 mph 42% 0 in 482 W/m2
17:17 87.4 °F 60.8 °F 29.9 in Calm   3 mph 41% 0 in 308 W/m2
17:22 87.8 °F 59 °F 29.9 in West 2 mph 3 mph 38% 0 in 250 W/m2
17:27 87.6 °F 58.1 °F 29.9 in SW 2 mph 2 mph 37% 0 in 209 W/m2
17:32 87.6 °F 58.8 °F 29.9 in Calm   2 mph 38% 0 in 237 W/m2
17:37 87.6 °F 59.5 °F 29.9 in NE 2 mph 2 mph 39% 0 in 292 W/m2
17:42 87.6 °F 59.5 °F 29.9 in West 0.9 mph 4 mph 39% 0 in 195 W/m2
17:47 87.4 °F 59.4 °F 29.9 in Calm   3 mph 39% 0 in 176 W/m2
17:52 87.1 °F 59.2 °F 29.9 in Calm   2 mph 39% 0 in 200 W/m2
17:57 87.1 °F 59.9 °F 29.9 in SSW 0.9 mph 1 mph 40% 0 in 244 W/m2
18:02 87.4 °F 59.4 °F 29.9 in WNW 2.9 mph 3 mph 39% 0 in 350 W/m2
18:07 88 °F 59.9 °F 29.8 in WNW 2.9 mph 3 mph 39% 0 in 422 W/m2
18:12 88.5 °F 59 °F 29.8 in NW 2 mph 3 mph 37% 0 in 526 W/m2
18:17 89.2 °F 60.3 °F 29.8 in ENE 0.9 mph 3 mph 38% 0 in 497 W/m2
18:22 90 °F 59.4 °F 29.8 in East 2.9 mph 7 mph 36% 0 in 464 W/m2
18:27 90.1 °F 58.8 °F 29.8 in NNW 0.9 mph 2 mph 35% 0 in 452 W/m2
18:32 90.7 °F 60.1 °F 29.8 in Calm   7 mph 36% 0 in 432 W/m2
18:37 91 °F 59.5 °F 29.8 in SW 8.9 mph 9 mph 35% 0 in 415 W/m2
18:42 90.7 °F 58.5 °F 29.8 in West 2 mph 4 mph 34% 0 in 390 W/m2
18:47 90.3 °F 58.1 °F 29.8 in WNW 2 mph 7 mph 34% 0 in 357 W/m2
18:52 90 °F 57.7 °F 29.8 in NE 0.9 mph 2 mph 34% 0 in 343 W/m2
18:57 90 °F 58.6 °F 29.8 in WSW 7 mph 7 mph 35% 0 in 309 W/m2
19:02 89.8 °F 58.5 °F 29.8 in WSW 2 mph 5 mph 35% 0 in 279 W/m2
19:07 89.6 °F 58.3 °F 29.8 in SW 4 mph 5 mph 35% 0 in 253 W/m2
19:12 89.2 °F 57.9 °F 29.8 in WNW 4.9 mph 5 mph 35% 0 in 221 W/m2
19:17 88.9 °F 58.5 °F 29.8 in WSW 0.9 mph 2 mph 36% 0 in 199 W/m2
19:23 89.1 °F 58.6 °F 29.8 in SW 2.9 mph 3 mph 36% 0 in 179 W/m2
19:28 88.9 °F 58.5 °F 29.8 in West 2 mph 6 mph 36% 0 in 156 W/m2
19:33 88.3 °F 58.8 °F 29.9 in NW 4 mph 6 mph 37% 0 in 142 W/m2
19:38 87.6 °F 58.1 °F 29.9 in West 2.9 mph 8 mph 37% 0 in 132 W/m2
19:43 87.3 °F 58.6 °F 29.9 in WSW 2.9 mph 4 mph 38% 0 in 125 W/m2
19:48 87.1 °F 59.2 °F 29.9 in WSW 2 mph 5 mph 39% 0 in 121 W/m2
19:53 86.9 °F 59 °F 29.9 in West 0.9 mph 3 mph 39% 0 in 111 W/m2
19:58 86.9 °F 60.4 °F 29.9 in West 2 mph 3 mph 41% 0 in 100 W/m2
20:03 86.7 °F 59.5 °F 29.9 in WSW 2 mph 3 mph 40% 0 in 86 W/m2
20:08 86.5 °F 59.4 °F 29.9 in SW 2.9 mph 6 mph 40% 0 in 74 W/m2
20:13 86.2 °F 59 °F 29.9 in SW 2.9 mph 4 mph 40% 0 in 37 W/m2
20:18 85.3 °F 59 °F 29.9 in WNW 6 mph 7 mph 41% 0 in 23 W/m2
20:23 84.6 °F 59 °F 29.9 in West 0.9 mph 3 mph 42% 0 in 19 W/m2
20:28 84 °F 58.5 °F 29.9 in West 0.9 mph 7 mph 42% 0 in 18 W/m2
Juneau County Weather
Compliments of Weather Underground - 2 mb